sensor_id;sensor_type;location;lat;lon;timestamp;pressure;altitude;pressure_sealevel;temperature;humidity
56074;BME280;41950;55.840;37.442;2023-04-26T00:00:49;98368.00;;;11.63;80.20
56074;BME280;41950;55.840;37.442;2023-04-26T00:03:14;98390.81;;;11.76;80.76
56074;BME280;41950;55.840;37.442;2023-04-26T00:05:40;98355.34;;;11.55;80.57
56074;BME280;41950;55.840;37.442;2023-04-26T00:08:07;98434.19;;;11.96;80.90
56074;BME280;41950;55.840;37.442;2023-04-26T00:10:33;98401.28;;;11.75;81.49
56074;BME280;41950;55.840;37.442;2023-04-26T00:12:59;98419.38;;;11.98;81.61
56074;BME280;41950;55.840;37.442;2023-04-26T00:15:28;98305.53;;;11.25;81.43
56074;BME280;41950;55.840;37.442;2023-04-26T00:17:54;98383.59;;;11.63;81.76
56074;BME280;41950;55.840;37.442;2023-04-26T00:20:20;98407.31;;;11.75;82.10
56074;BME280;41950;55.840;37.442;2023-04-26T00:22:49;98396.47;;;11.66;82.26
56074;BME280;41950;55.840;37.442;2023-04-26T00:25:18;98346.63;;;11.36;82.24
56074;BME280;41950;55.840;37.442;2023-04-26T00:27:43;98335.78;;;11.26;82.64
56074;BME280;41950;55.840;37.442;2023-04-26T00:30:09;98267.38;;;10.85;82.72
56074;BME280;41950;55.840;37.442;2023-04-26T00:32:38;98336.09;;;11.19;83.21
56074;BME280;41950;55.840;37.442;2023-04-26T00:35:04;98323.44;;;11.11;83.50
56074;BME280;41950;55.840;37.442;2023-04-26T00:37:30;98310.06;;;11.00;83.56
56074;BME280;41950;55.840;37.442;2023-04-26T00:39:56;98222.03;;;10.51;83.70
56074;BME280;41950;55.840;37.442;2023-04-26T00:42:22;98252.00;;;10.80;83.47
56074;BME280;41950;55.840;37.442;2023-04-26T00:44:48;98195.19;;;10.52;83.03
56074;BME280;41950;55.840;37.442;2023-04-26T00:47:14;98293.25;;;11.08;83.33
56074;BME280;41950;55.840;37.442;2023-04-26T00:49:45;98210.94;;;10.70;83.37
56074;BME280;41950;55.840;37.442;2023-04-26T00:52:14;98247.72;;;10.79;83.69
56074;BME280;41950;55.840;37.442;2023-04-26T00:54:42;98299.22;;;11.10;83.84
56074;BME280;41950;55.840;37.442;2023-04-26T00:57:08;98098.88;;;9.98;83.80
56074;BME280;41950;55.840;37.442;2023-04-26T00:59:35;98102.44;;;9.95;84.11
56074;BME280;41950;55.840;37.442;2023-04-26T01:02:04;98197.59;;;10.57;84.60
56074;BME280;41950;55.840;37.442;2023-04-26T01:04:30;98175.00;;;10.39;84.39
56074;BME280;41950;55.840;37.442;2023-04-26T01:06:56;98195.47;;;10.46;84.65
56074;BME280;41950;55.840;37.442;2023-04-26T01:09:25;98285.00;;;10.99;84.95
56074;BME280;41950;55.840;37.442;2023-04-26T01:11:54;98155.53;;;10.29;84.72
56074;BME280;41950;55.840;37.442;2023-04-26T01:14:23;98134.78;;;10.07;84.41
56074;BME280;41950;55.840;37.442;2023-04-26T01:16:49;98274.94;;;11.11;84.59
56074;BME280;41950;55.840;37.442;2023-04-26T01:19:16;98274.16;;;11.09;84.61
56074;BME280;41950;55.840;37.442;2023-04-26T01:21:42;98162.84;;;10.41;84.41
56074;BME280;41950;55.840;37.442;2023-04-26T01:24:12;98141.16;;;10.20;84.68
56074;BME280;41950;55.840;37.442;2023-04-26T01:26:46;98189.78;;;10.37;85.08
56074;BME280;41950;55.840;37.442;2023-04-26T01:29:21;98185.63;;;10.33;85.30
56074;BME280;41950;55.840;37.442;2023-04-26T01:31:48;98086.81;;;9.53;85.73
56074;BME280;41950;55.840;37.442;2023-04-26T01:34:15;98107.72;;;9.70;85.62
56074;BME280;41950;55.840;37.442;2023-04-26T01:36:41;98290.84;;;11.04;85.87
56074;BME280;41950;55.840;37.442;2023-04-26T01:39:07;98111.88;;;9.96;85.41
56074;BME280;41950;55.840;37.442;2023-04-26T01:41:33;98054.75;;;9.55;85.37
56074;BME280;41950;55.840;37.442;2023-04-26T01:44:00;98192.81;;;10.48;85.61
56074;BME280;41950;55.840;37.442;2023-04-26T01:46:26;98165.84;;;10.30;85.66
56074;BME280;41950;55.840;37.442;2023-04-26T01:48:52;98252.91;;;10.79;85.70
56074;BME280;41950;55.840;37.442;2023-04-26T01:51:18;98060.13;;;9.73;85.41
56074;BME280;41950;55.840;37.442;2023-04-26T01:53:47;98292.72;;;11.21;85.64
56074;BME280;41950;55.840;37.442;2023-04-26T01:56:12;98120.50;;;10.18;85.65
56074;BME280;41950;55.840;37.442;2023-04-26T01:58:38;98143.81;;;10.40;85.61
56074;BME280;41950;55.840;37.442;2023-04-26T02:01:06;98106.81;;;10.15;85.41
56074;BME280;41950;55.840;37.442;2023-04-26T02:03:32;98167.78;;;10.47;85.35
56074;BME280;41950;55.840;37.442;2023-04-26T02:05:58;98241.84;;;10.96;85.38
56074;BME280;41950;55.840;37.442;2023-04-26T02:08:23;98179.97;;;10.65;85.61
56074;BME280;41950;55.840;37.442;2023-04-26T02:11:03;98133.94;;;10.28;85.63
56074;BME280;41950;55.840;37.442;2023-04-26T02:13:29;98073.19;;;9.91;85.62
56074;BME280;41950;55.840;37.442;2023-04-26T02:15:58;98200.84;;;10.62;86.12
56074;BME280;41950;55.840;37.442;2023-04-26T02:18:24;98037.00;;;9.68;86.10
56074;BME280;41950;55.840;37.442;2023-04-26T02:20:50;98198.97;;;10.66;86.17
56074;BME280;41950;55.840;37.442;2023-04-26T02:23:16;98050.41;;;9.56;86.78
56074;BME280;41950;55.840;37.442;2023-04-26T02:25:45;98155.78;;;10.23;86.96
56074;BME280;41950;55.840;37.442;2023-04-26T02:28:12;98274.31;;;10.84;87.30
56074;BME280;41950;55.840;37.442;2023-04-26T02:30:38;98230.59;;;10.75;87.26
56074;BME280;41950;55.840;37.442;2023-04-26T02:33:03;98033.75;;;9.63;87.51
56074;BME280;41950;55.840;37.442;2023-04-26T02:35:29;98055.41;;;9.82;87.16
56074;BME280;41950;55.840;37.442;2023-04-26T02:37:55;98069.78;;;9.91;87.01
56074;BME280;41950;55.840;37.442;2023-04-26T02:40:21;98176.31;;;10.49;87.50
56074;BME280;41950;55.840;37.442;2023-04-26T02:42:47;98202.53;;;10.63;87.90
56074;BME280;41950;55.840;37.442;2023-04-26T02:45:13;98139.72;;;10.35;87.64
56074;BME280;41950;55.840;37.442;2023-04-26T02:47:39;98112.66;;;10.20;87.55
56074;BME280;41950;55.840;37.442;2023-04-26T02:50:06;98216.97;;;10.91;87.13
56074;BME280;41950;55.840;37.442;2023-04-26T02:52:33;98209.38;;;10.86;87.14
56074;BME280;41950;55.840;37.442;2023-04-26T02:54:59;98167.19;;;10.61;87.63
56074;BME280;41950;55.840;37.442;2023-04-26T02:57:25;98231.50;;;10.95;87.73
56074;BME280;41950;55.840;37.442;2023-04-26T02:59:51;98253.59;;;11.05;87.68
56074;BME280;41950;55.840;37.442;2023-04-26T03:02:17;98209.91;;;10.74;87.79
56074;BME280;41950;55.840;37.442;2023-04-26T03:04:43;98180.09;;;10.62;88.07
56074;BME280;41950;55.840;37.442;2023-04-26T03:07:09;98182.03;;;10.57;88.14
56074;BME280;41950;55.840;37.442;2023-04-26T03:09:34;98228.44;;;10.85;88.14
56074;BME280;41950;55.840;37.442;2023-04-26T03:12:06;98229.72;;;10.97;87.89
56074;BME280;41950;55.840;37.442;2023-04-26T03:14:32;98187.97;;;10.81;87.69
56074;BME280;41950;55.840;37.442;2023-04-26T03:16:59;98152.34;;;10.64;87.40
56074;BME280;41950;55.840;37.442;2023-04-26T03:19:25;98180.19;;;10.81;87.27
56074;BME280;41950;55.840;37.442;2023-04-26T03:21:53;98213.88;;;11.03;87.32
56074;BME280;41950;55.840;37.442;2023-04-26T03:24:19;98228.66;;;11.01;87.80
56074;BME280;41950;55.840;37.442;2023-04-26T03:26:45;98164.59;;;10.61;88.36
56074;BME280;41950;55.840;37.442;2023-04-26T03:29:10;98201.59;;;10.86;88.21
56074;BME280;41950;55.840;37.442;2023-04-26T03:31:37;98162.97;;;10.58;88.71
56074;BME280;41950;55.840;37.442;2023-04-26T03:34:03;98178.88;;;10.71;88.97
56074;BME280;41950;55.840;37.442;2023-04-26T03:36:29;98177.44;;;10.64;89.04
56074;BME280;41950;55.840;37.442;2023-04-26T03:38:55;98148.56;;;10.51;89.03
56074;BME280;41950;55.840;37.442;2023-04-26T03:41:26;97994.84;;;9.65;88.87
56074;BME280;41950;55.840;37.442;2023-04-26T03:43:55;98037.50;;;9.98;88.73
56074;BME280;41950;55.840;37.442;2023-04-26T03:46:20;97954.44;;;9.60;88.54
56074;BME280;41950;55.840;37.442;2023-04-26T03:48:49;98110.88;;;10.63;88.10
56074;BME280;41950;55.840;37.442;2023-04-26T03:51:36;98011.25;;;9.85;87.85
56074;BME280;41950;55.840;37.442;2023-04-26T03:54:11;98063.38;;;10.21;88.42
56074;BME280;41950;55.840;37.442;2023-04-26T03:56:37;98092.69;;;10.44;88.43
56074;BME280;41950;55.840;37.442;2023-04-26T03:59:04;98172.19;;;10.86;88.68
56074;BME280;41950;55.840;37.442;2023-04-26T04:01:30;98045.16;;;10.01;88.65
56074;BME280;41950;55.840;37.442;2023-04-26T04:03:56;98058.81;;;10.05;89.33
56074;BME280;41950;55.840;37.442;2023-04-26T04:06:22;97972.31;;;9.67;88.89
56074;BME280;41950;55.840;37.442;2023-04-26T04:08:47;98032.66;;;10.11;88.53
56074;BME280;41950;55.840;37.442;2023-04-26T04:11:13;98002.06;;;9.99;88.84
56074;BME280;41950;55.840;37.442;2023-04-26T04:13:39;98049.44;;;10.24;88.73
56074;BME280;41950;55.840;37.442;2023-04-26T04:16:05;98178.28;;;11.05;89.05
56074;BME280;41950;55.840;37.442;2023-04-26T04:18:31;98142.75;;;10.87;88.78
56074;BME280;41950;55.840;37.442;2023-04-26T04:20:57;98154.66;;;10.91;88.70
56074;BME280;41950;55.840;37.442;2023-04-26T04:23:23;98190.94;;;11.12;89.34
56074;BME280;41950;55.840;37.442;2023-04-26T04:25:48;98057.97;;;10.26;89.58
56074;BME280;41950;55.840;37.442;2023-04-26T04:28:15;98086.13;;;10.56;89.31
56074;BME280;41950;55.840;37.442;2023-04-26T04:30:41;98004.06;;;10.12;89.14
56074;BME280;41950;55.840;37.442;2023-04-26T04:33:08;98141.81;;;10.88;89.16
56074;BME280;41950;55.840;37.442;2023-04-26T04:35:34;98182.94;;;11.17;89.50
56074;BME280;41950;55.840;37.442;2023-04-26T04:38:00;98053.91;;;10.41;89.59
56074;BME280;41950;55.840;37.442;2023-04-26T04:40:27;98117.41;;;10.92;89.40
56074;BME280;41950;55.840;37.442;2023-04-26T04:42:53;98138.88;;;11.15;88.74
56074;BME280;41950;55.840;37.442;2023-04-26T04:45:19;98151.78;;;11.17;88.59
56074;BME280;41950;55.840;37.442;2023-04-26T04:47:48;98061.88;;;10.57;88.98
56074;BME280;41950;55.840;37.442;2023-04-26T04:50:13;98117.09;;;10.99;88.90
56074;BME280;41950;55.840;37.442;2023-04-26T04:52:39;98194.03;;;11.41;88.37
56074;BME280;41950;55.840;37.442;2023-04-26T04:55:05;98115.94;;;10.86;88.34
56074;BME280;41950;55.840;37.442;2023-04-26T04:57:31;97946.28;;;9.90;88.17
56074;BME280;41950;55.840;37.442;2023-04-26T04:59:57;98039.97;;;10.43;88.68
56074;BME280;41950;55.840;37.442;2023-04-26T05:02:23;97925.16;;;9.79;88.56
56074;BME280;41950;55.840;37.442;2023-04-26T05:04:49;98052.41;;;10.56;88.28
56074;BME280;41950;55.840;37.442;2023-04-26T05:07:18;98090.63;;;10.91;88.28
56074;BME280;41950;55.840;37.442;2023-04-26T05:09:46;97997.16;;;10.33;87.99
56074;BME280;41950;55.840;37.442;2023-04-26T05:12:12;97998.84;;;10.34;88.12
56074;BME280;41950;55.840;37.442;2023-04-26T05:14:37;98077.06;;;10.84;88.14
56074;BME280;41950;55.840;37.442;2023-04-26T05:17:05;98154.91;;;11.25;88.53
56074;BME280;41950;55.840;37.442;2023-04-26T05:19:30;98063.75;;;10.73;88.37
56074;BME280;41950;55.840;37.442;2023-04-26T05:21:56;97962.16;;;10.03;88.69
56074;BME280;41950;55.840;37.442;2023-04-26T05:24:22;97976.91;;;10.23;88.20
56074;BME280;41950;55.840;37.442;2023-04-26T05:26:48;98204.13;;;11.47;88.59
56074;BME280;41950;55.840;37.442;2023-04-26T05:29:14;98084.78;;;10.86;88.33
56074;BME280;41950;55.840;37.442;2023-04-26T05:31:40;98093.75;;;10.99;87.82
56074;BME280;41950;55.840;37.442;2023-04-26T05:34:06;98005.34;;;10.44;88.06
56074;BME280;41950;55.840;37.442;2023-04-26T05:36:32;98066.34;;;10.73;87.69
56074;BME280;41950;55.840;37.442;2023-04-26T05:38:58;98113.47;;;11.03;87.84
56074;BME280;41950;55.840;37.442;2023-04-26T05:41:23;97939.16;;;9.95;87.97
56074;BME280;41950;55.840;37.442;2023-04-26T05:43:49;98078.41;;;10.74;88.41
56074;BME280;41950;55.840;37.442;2023-04-26T05:46:15;98035.78;;;10.60;88.27
56074;BME280;41950;55.840;37.442;2023-04-26T05:48:41;97992.50;;;10.41;88.31
56074;BME280;41950;55.840;37.442;2023-04-26T05:51:06;98046.78;;;10.85;88.27
56074;BME280;41950;55.840;37.442;2023-04-26T05:53:32;98143.69;;;11.43;87.77
56074;BME280;41950;55.840;37.442;2023-04-26T05:55:58;98143.22;;;11.54;87.49
56074;BME280;41950;55.840;37.442;2023-04-26T05:58:24;98196.28;;;11.88;87.39
56074;BME280;41950;55.840;37.442;2023-04-26T06:00:50;98157.38;;;11.66;87.23
56074;BME280;41950;55.840;37.442;2023-04-26T06:03:16;98039.69;;;10.89;87.04
56074;BME280;41950;55.840;37.442;2023-04-26T06:05:41;98023.06;;;10.93;86.65
56074;BME280;41950;55.840;37.442;2023-04-26T06:08:08;98106.59;;;11.40;86.60
56074;BME280;41950;55.840;37.442;2023-04-26T06:10:36;98100.03;;;11.33;86.27
56074;BME280;41950;55.840;37.442;2023-04-26T06:13:03;98078.31;;;11.34;86.37
56074;BME280;41950;55.840;37.442;2023-04-26T06:15:28;98024.34;;;11.03;85.77
56074;BME280;41950;55.840;37.442;2023-04-26T06:17:56;98200.72;;;12.22;85.83
56074;BME280;41950;55.840;37.442;2023-04-26T06:20:22;98066.44;;;11.47;85.17
56074;BME280;41950;55.840;37.442;2023-04-26T06:22:48;97991.22;;;11.08;84.50
56074;BME280;41950;55.840;37.442;2023-04-26T06:25:13;98111.38;;;11.68;84.41
56074;BME280;41950;55.840;37.442;2023-04-26T06:27:39;98103.22;;;11.75;84.71
56074;BME280;41950;55.840;37.442;2023-04-26T06:30:06;98164.00;;;12.28;83.92
56074;BME280;41950;55.840;37.442;2023-04-26T06:32:37;97915.00;;;10.73;83.48
56074;BME280;41950;55.840;37.442;2023-04-26T06:35:03;98179.91;;;12.22;84.03
56074;BME280;41950;55.840;37.442;2023-04-26T06:37:31;97973.91;;;11.08;84.19
56074;BME280;41950;55.840;37.442;2023-04-26T06:39:57;98064.34;;;11.55;83.37
56074;BME280;41950;55.840;37.442;2023-04-26T06:42:26;98200.84;;;12.37;84.20
56074;BME280;41950;55.840;37.442;2023-04-26T06:44:53;98177.41;;;12.20;83.86
56074;BME280;41950;55.840;37.442;2023-04-26T06:47:19;98137.88;;;11.95;84.21
56074;BME280;41950;55.840;37.442;2023-04-26T06:49:45;98160.34;;;12.15;84.46
56074;BME280;41950;55.840;37.442;2023-04-26T06:52:10;98116.38;;;11.91;83.71
56074;BME280;41950;55.840;37.442;2023-04-26T06:54:36;98143.22;;;11.92;84.28
56074;BME280;41950;55.840;37.442;2023-04-26T06:57:02;98155.28;;;11.93;84.70
56074;BME280;41950;55.840;37.442;2023-04-26T06:59:27;98209.72;;;12.33;84.47
56074;BME280;41950;55.840;37.442;2023-04-26T07:01:53;98191.72;;;12.29;84.18
56074;BME280;41950;55.840;37.442;2023-04-26T07:04:19;98209.44;;;12.40;84.08
56074;BME280;41950;55.840;37.442;2023-04-26T07:06:45;98219.69;;;12.43;84.34
56074;BME280;41950;55.840;37.442;2023-04-26T07:09:11;98206.91;;;12.38;83.66
56074;BME280;41950;55.840;37.442;2023-04-26T07:11:37;98184.50;;;12.17;84.33
56074;BME280;41950;55.840;37.442;2023-04-26T07:14:04;98197.50;;;12.35;83.97
56074;BME280;41950;55.840;37.442;2023-04-26T07:16:29;98185.84;;;12.43;83.90
56074;BME280;41950;55.840;37.442;2023-04-26T07:18:56;98204.03;;;12.61;83.51
56074;BME280;41950;55.840;37.442;2023-04-26T07:21:25;98186.63;;;12.45;83.08
56074;BME280;41950;55.840;37.442;2023-04-26T07:23:57;98227.16;;;12.67;83.02
56074;BME280;41950;55.840;37.442;2023-04-26T07:26:24;98220.34;;;12.65;82.97
56074;BME280;41950;55.840;37.442;2023-04-26T07:28:51;98165.28;;;12.38;83.30
56074;BME280;41950;55.840;37.442;2023-04-26T07:31:17;98216.28;;;12.94;82.67
56074;BME280;41950;55.840;37.442;2023-04-26T07:33:43;98187.09;;;12.70;82.23
56074;BME280;41950;55.840;37.442;2023-04-26T07:36:09;98229.91;;;12.99;81.95
56074;BME280;41950;55.840;37.442;2023-04-26T07:38:35;98193.22;;;12.69;82.40
56074;BME280;41950;55.840;37.442;2023-04-26T07:41:01;98190.03;;;12.64;82.22
56074;BME280;41950;55.840;37.442;2023-04-26T07:43:26;98219.41;;;12.83;82.69
56074;BME280;41950;55.840;37.442;2023-04-26T07:45:53;98231.06;;;12.93;81.70
56074;BME280;41950;55.840;37.442;2023-04-26T07:48:18;98209.50;;;12.55;82.13
56074;BME280;41950;55.840;37.442;2023-04-26T07:50:44;98185.00;;;12.42;82.82
56074;BME280;41950;55.840;37.442;2023-04-26T07:53:10;98221.31;;;12.80;82.83
56074;BME280;41950;55.840;37.442;2023-04-26T07:55:36;98193.53;;;12.80;82.25
56074;BME280;41950;55.840;37.442;2023-04-26T07:58:02;98243.34;;;12.91;82.33
56074;BME280;41950;55.840;37.442;2023-04-26T08:00:28;98215.69;;;12.89;82.54
56074;BME280;41950;55.840;37.442;2023-04-26T08:02:54;98171.72;;;12.83;82.39
56074;BME280;41950;55.840;37.442;2023-04-26T08:05:20;98236.69;;;13.20;81.16
56074;BME280;41950;55.840;37.442;2023-04-26T08:07:46;98227.56;;;12.94;81.85
56074;BME280;41950;55.840;37.442;2023-04-26T08:10:12;98247.53;;;13.11;81.94
56074;BME280;41950;55.840;37.442;2023-04-26T08:12:38;98216.28;;;12.94;81.67
56074;BME280;41950;55.840;37.442;2023-04-26T08:15:04;98216.03;;;12.81;82.07
56074;BME280;41950;55.840;37.442;2023-04-26T08:17:33;98203.50;;;12.72;82.18
56074;BME280;41950;55.840;37.442;2023-04-26T08:19:59;98201.03;;;12.69;81.51
56074;BME280;41950;55.840;37.442;2023-04-26T08:22:25;98226.84;;;12.74;81.63
56074;BME280;41950;55.840;37.442;2023-04-26T08:24:54;98187.16;;;12.34;82.02
56074;BME280;41950;55.840;37.442;2023-04-26T08:27:21;98136.09;;;11.95;82.61
56074;BME280;41950;55.840;37.442;2023-04-26T08:29:47;98127.53;;;11.93;82.44
56074;BME280;41950;55.840;37.442;2023-04-26T08:32:13;98198.94;;;12.41;82.66
56074;BME280;41950;55.840;37.442;2023-04-26T08:34:46;98166.41;;;12.50;82.20
56074;BME280;41950;55.840;37.442;2023-04-26T08:37:13;98165.44;;;12.52;81.58
56074;BME280;41950;55.840;37.442;2023-04-26T08:39:38;98111.75;;;12.15;81.67
56074;BME280;41950;55.840;37.442;2023-04-26T08:42:11;98216.28;;;12.94;81.59
56074;BME280;41950;55.840;37.442;2023-04-26T08:44:40;98184.75;;;12.65;81.35
56074;BME280;41950;55.840;37.442;2023-04-26T08:47:28;98259.06;;;13.24;81.52
56074;BME280;41950;55.840;37.442;2023-04-26T08:50:01;98261.03;;;13.37;81.63
56074;BME280;41950;55.840;37.442;2023-04-26T08:52:31;98084.47;;;12.41;80.99
56074;BME280;41950;55.840;37.442;2023-04-26T08:54:58;98151.28;;;12.92;80.70
56074;BME280;41950;55.840;37.442;2023-04-26T08:57:25;98239.25;;;13.55;80.38
56074;BME280;41950;55.840;37.442;2023-04-26T08:59:51;98255.44;;;13.77;79.76
56074;BME280;41950;55.840;37.442;2023-04-26T09:02:21;98256.38;;;13.76;78.93
56074;BME280;41950;55.840;37.442;2023-04-26T09:04:48;98261.41;;;13.79;79.40
56074;BME280;41950;55.840;37.442;2023-04-26T09:07:24;98265.22;;;13.89;78.91
56074;BME280;41950;55.840;37.442;2023-04-26T09:09:52;98256.69;;;13.70;78.23
56074;BME280;41950;55.840;37.442;2023-04-26T09:12:19;98179.22;;;13.23;78.49
56074;BME280;41950;55.840;37.442;2023-04-26T09:14:46;98226.56;;;13.32;78.54
56074;BME280;41950;55.840;37.442;2023-04-26T09:17:32;98218.03;;;13.45;79.22
56074;BME280;41950;55.840;37.442;2023-04-26T09:20:00;98247.50;;;13.63;79.33
56074;BME280;41950;55.840;37.442;2023-04-26T09:22:30;98237.28;;;13.43;79.36
56074;BME280;41950;55.840;37.442;2023-04-26T09:24:57;98198.19;;;13.08;79.57
56074;BME280;41950;55.840;37.442;2023-04-26T09:27:40;98099.75;;;12.30;79.20
56074;BME280;41950;55.840;37.442;2023-04-26T09:32:57;98277.41;;;13.39;79.72
56074;BME280;41950;55.840;37.442;2023-04-26T09:35:28;98233.38;;;12.99;79.56
56074;BME280;41950;55.840;37.442;2023-04-26T09:38:14;98175.25;;;12.64;80.00
56074;BME280;41950;55.840;37.442;2023-04-26T09:40:45;98278.25;;;13.39;79.27
56074;BME280;41950;55.840;37.442;2023-04-26T09:43:14;98242.25;;;13.30;79.25
56074;BME280;41950;55.840;37.442;2023-04-26T09:45:57;98282.78;;;13.70;79.35
56074;BME280;41950;55.840;37.442;2023-04-26T09:48:31;98219.91;;;13.59;78.64
56074;BME280;41950;55.840;37.442;2023-04-26T09:55:54;98264.53;;;13.70;77.52
56074;BME280;41950;55.840;37.442;2023-04-26T09:58:21;98173.81;;;13.09;77.49
56074;BME280;41950;55.840;37.442;2023-04-26T10:00:51;98261.41;;;13.79;77.53
56074;BME280;41950;55.840;37.442;2023-04-26T10:03:21;98251.56;;;13.84;76.77
56074;BME280;41950;55.840;37.442;2023-04-26T10:05:48;98273.50;;;14.13;76.55
56074;BME280;41950;55.840;37.442;2023-04-26T10:08:14;98262.97;;;14.15;76.52
56074;BME280;41950;55.840;37.442;2023-04-26T10:10:40;98275.25;;;14.13;76.88
56074;BME280;41950;55.840;37.442;2023-04-26T10:13:06;98220.63;;;13.78;76.75
56074;BME280;41950;55.840;37.442;2023-04-26T10:15:34;98246.47;;;13.99;76.36
56074;BME280;41950;55.840;37.442;2023-04-26T10:18:00;98273.56;;;14.12;76.25
56074;BME280;41950;55.840;37.442;2023-04-26T10:20:27;98281.75;;;14.06;76.45
56074;BME280;41950;55.840;37.442;2023-04-26T10:22:56;98277.50;;;13.87;77.10
56074;BME280;41950;55.840;37.442;2023-04-26T10:25:39;98279.38;;;13.68;77.61
56074;BME280;41950;55.840;37.442;2023-04-26T10:28:06;98298.84;;;13.78;77.61
56074;BME280;41950;55.840;37.442;2023-04-26T10:30:32;98232.34;;;13.37;77.91
56074;BME280;41950;55.840;37.442;2023-04-26T10:35:26;98318.97;;;13.92;78.32
56074;BME280;41950;55.840;37.442;2023-04-26T10:40:31;98331.25;;;13.90;78.17
56074;BME280;41950;55.840;37.442;2023-04-26T10:45:41;98335.16;;;13.99;77.81
56074;BME280;41950;55.840;37.442;2023-04-26T10:48:19;98308.53;;;14.25;77.00
56074;BME280;41950;55.840;37.442;2023-04-26T10:59:09;98315.38;;;15.51;70.79
56074;BME280;41950;55.840;37.442;2023-04-26T11:01:35;98317.03;;;16.10;67.59
56074;BME280;41950;55.840;37.442;2023-04-26T11:04:09;98328.16;;;17.10;62.81
56074;BME280;41950;55.840;37.442;2023-04-26T11:06:54;98328.59;;;17.17;62.02
56074;BME280;41950;55.840;37.442;2023-04-26T11:09:39;98307.56;;;17.31;61.40
56074;BME280;41950;55.840;37.442;2023-04-26T11:12:09;98304.66;;;18.25;58.25
56074;BME280;41950;55.840;37.442;2023-04-26T11:14:35;98311.16;;;19.05;56.05
56074;BME280;41950;55.840;37.442;2023-04-26T11:17:05;98316.44;;;19.97;53.32
56074;BME280;41950;55.840;37.442;2023-04-26T11:19:31;98326.09;;;19.39;54.24
56074;BME280;41950;55.840;37.442;2023-04-26T11:22:00;98330.53;;;18.18;55.54
56074;BME280;41950;55.840;37.442;2023-04-26T11:24:29;98287.09;;;17.23;57.57
56074;BME280;41950;55.840;37.442;2023-04-26T11:26:56;98335.84;;;17.13;59.13
56074;BME280;41950;55.840;37.442;2023-04-26T11:29:25;98339.72;;;17.60;58.60
56074;BME280;41950;55.840;37.442;2023-04-26T11:31:55;98340.53;;;17.48;58.83
56074;BME280;41950;55.840;37.442;2023-04-26T11:34:31;98313.69;;;17.05;58.45
56074;BME280;41950;55.840;37.442;2023-04-26T11:36:58;98344.72;;;16.84;60.16
56074;BME280;41950;55.840;37.442;2023-04-26T11:39:24;98291.00;;;16.35;61.26
56074;BME280;41950;55.840;37.442;2023-04-26T11:41:50;98306.09;;;16.32;60.50
56074;BME280;41950;55.840;37.442;2023-04-26T11:44:22;98127.56;;;15.29;61.22
56074;BME280;41950;55.840;37.442;2023-04-26T11:46:48;98101.16;;;14.91;61.38
56074;BME280;41950;55.840;37.442;2023-04-26T11:49:15;98271.06;;;15.63;62.16
56074;BME280;41950;55.840;37.442;2023-04-26T11:51:42;98108.19;;;14.30;62.90
56074;BME280;41950;55.840;37.442;2023-04-26T11:54:08;98128.06;;;14.17;63.79
56074;BME280;41950;55.840;37.442;2023-04-26T11:56:34;98205.41;;;14.34;65.10
56074;BME280;41950;55.840;37.442;2023-04-26T11:59:00;98313.94;;;14.69;66.57
56074;BME280;41950;55.840;37.442;2023-04-26T12:01:27;98317.00;;;14.62;66.70
56074;BME280;41950;55.840;37.442;2023-04-26T12:03:56;98201.63;;;13.76;66.82
56074;BME280;41950;55.840;37.442;2023-04-26T12:06:41;98366.78;;;14.59;67.35
56074;BME280;41950;55.840;37.442;2023-04-26T12:09:07;98176.34;;;13.45;67.03
56074;BME280;41950;55.840;37.442;2023-04-26T12:11:34;98328.13;;;14.16;66.83
56074;BME280;41950;55.840;37.442;2023-04-26T12:14:00;98225.63;;;13.66;67.03
56074;BME280;41950;55.840;37.442;2023-04-26T12:16:26;98303.44;;;14.06;65.79
56074;BME280;41950;55.840;37.442;2023-04-26T12:18:53;98222.41;;;13.45;66.03
56074;BME280;41950;55.840;37.442;2023-04-26T12:21:19;98130.69;;;12.71;65.67
56074;BME280;41950;55.840;37.442;2023-04-26T12:23:45;98191.06;;;13.46;65.42
56074;BME280;41950;55.840;37.442;2023-04-26T12:26:14;98227.84;;;13.89;64.00
56074;BME280;41950;55.840;37.442;2023-04-26T12:28:40;98283.41;;;14.22;63.45
56074;BME280;41950;55.840;37.442;2023-04-26T12:31:06;98372.34;;;15.75;61.51
56074;BME280;41950;55.840;37.442;2023-04-26T12:33:33;98294.81;;;16.17;57.40
56074;BME280;41950;55.840;37.442;2023-04-26T12:36:10;98393.63;;;16.97;56.58
56074;BME280;41950;55.840;37.442;2023-04-26T12:38:37;98280.03;;;16.16;57.41
56074;BME280;41950;55.840;37.442;2023-04-26T12:41:03;98315.25;;;16.11;57.91
56074;BME280;41950;55.840;37.442;2023-04-26T12:43:29;98276.19;;;15.79;58.39
56074;BME280;41950;55.840;37.442;2023-04-26T12:45:55;98281.97;;;16.13;58.19
56074;BME280;41950;55.840;37.442;2023-04-26T12:48:21;98318.81;;;16.65;58.25
56074;BME280;41950;55.840;37.442;2023-04-26T12:50:47;98320.72;;;16.77;57.24
56074;BME280;41950;55.840;37.442;2023-04-26T12:53:13;98246.41;;;16.37;57.69
56074;BME280;41950;55.840;37.442;2023-04-26T12:55:39;98223.59;;;16.39;56.71
56074;BME280;41950;55.840;37.442;2023-04-26T12:58:04;98368.78;;;17.57;56.54
56074;BME280;41950;55.840;37.442;2023-04-26T13:00:30;98299.81;;;17.42;55.17
56074;BME280;41950;55.840;37.442;2023-04-26T13:02:56;98229.47;;;16.96;54.02
56074;BME280;41950;55.840;37.442;2023-04-26T13:05:22;98386.25;;;17.71;55.04
56074;BME280;41950;55.840;37.442;2023-04-26T13:07:51;98351.78;;;17.63;54.81
56074;BME280;41950;55.840;37.442;2023-04-26T13:10:17;98235.25;;;17.02;53.98
56074;BME280;41950;55.840;37.442;2023-04-26T13:12:43;98174.00;;;16.50;54.22
56074;BME280;41950;55.840;37.442;2023-04-26T13:15:09;98246.72;;;17.26;51.94